sensor_id;sensor_type;location;lat;lon;timestamp;pressure;altitude;pressure_sealevel;temperature;humidity
22389;BME280;11362;48.102;11.620;2023-02-18T00:01:37;96056.28;;;23.50;35.49
22389;BME280;11362;48.102;11.620;2023-02-18T00:04:02;96055.50;;;23.49;35.43
22389;BME280;11362;48.102;11.620;2023-02-18T00:06:32;96049.97;;;23.49;35.41
22389;BME280;11362;48.102;11.620;2023-02-18T00:08:58;96052.31;;;23.47;35.41
22389;BME280;11362;48.102;11.620;2023-02-18T00:11:24;96054.72;;;23.49;35.45
22389;BME280;11362;48.102;11.620;2023-02-18T00:13:54;96053.94;;;23.48;35.54
22389;BME280;11362;48.102;11.620;2023-02-18T00:16:21;96048.41;;;23.48;35.56
22389;BME280;11362;48.102;11.620;2023-02-18T00:18:47;96045.63;;;23.48;35.48
22389;BME280;11362;48.102;11.620;2023-02-18T00:21:13;96035.69;;;23.47;35.40
22389;BME280;11362;48.102;11.620;2023-02-18T00:23:38;96036.50;;;23.48;35.44
22389;BME280;11362;48.102;11.620;2023-02-18T00:26:07;96034.91;;;23.47;35.39
22389;BME280;11362;48.102;11.620;2023-02-18T00:28:33;96030.56;;;23.46;35.33
22389;BME280;11362;48.102;11.620;2023-02-18T00:31:05;96036.13;;;23.46;35.43
22389;BME280;11362;48.102;11.620;2023-02-18T00:33:30;96032.53;;;23.45;35.27
22389;BME280;11362;48.102;11.620;2023-02-18T00:36:03;96038.06;;;23.45;35.39
22389;BME280;11362;48.102;11.620;2023-02-18T00:38:29;96039.66;;;23.46;35.50
22389;BME280;11362;48.102;11.620;2023-02-18T00:40:55;96034.91;;;23.47;35.26
22389;BME280;11362;48.102;11.620;2023-02-18T00:43:20;96045.19;;;23.46;35.36
22389;BME280;11362;48.102;11.620;2023-02-18T00:45:45;96032.53;;;23.45;35.20
22389;BME280;11362;48.102;11.620;2023-02-18T00:48:10;96027.78;;;23.46;35.25
22389;BME280;11362;48.102;11.620;2023-02-18T00:50:36;96022.25;;;23.46;35.29
22389;BME280;11362;48.102;11.620;2023-02-18T00:53:01;96029.75;;;23.45;35.33
22389;BME280;11362;48.102;11.620;2023-02-18T00:55:26;96032.53;;;23.45;35.27
22389;BME280;11362;48.102;11.620;2023-02-18T00:57:52;96036.13;;;23.46;35.33
22389;BME280;11362;48.102;11.620;2023-02-18T01:00:17;96031.34;;;23.46;35.26
22389;BME280;11362;48.102;11.620;2023-02-18T01:02:42;96044.44;;;23.46;35.21
22389;BME280;11362;48.102;11.620;2023-02-18T01:05:08;96040.06;;;23.45;35.00
22389;BME280;11362;48.102;11.620;2023-02-18T01:07:33;96030.94;;;23.44;35.19
22389;BME280;11362;48.102;11.620;2023-02-18T01:09:59;96032.16;;;23.43;35.20
22389;BME280;11362;48.102;11.620;2023-02-18T01:12:24;96026.22;;;23.45;35.28
22389;BME280;11362;48.102;11.620;2023-02-18T01:14:49;96032.16;;;23.43;35.23
22389;BME280;11362;48.102;11.620;2023-02-18T01:17:14;96029.38;;;23.43;35.13
22389;BME280;11362;48.102;11.620;2023-02-18T01:19:40;96034.91;;;23.43;35.19
22389;BME280;11362;48.102;11.620;2023-02-18T01:22:05;96028.56;;;23.43;35.19
22389;BME280;11362;48.102;11.620;2023-02-18T01:24:30;96024.59;;;23.44;35.05
22389;BME280;11362;48.102;11.620;2023-02-18T01:26:56;96018.28;;;23.43;35.23
22389;BME280;11362;48.102;11.620;2023-02-18T01:29:21;96015.50;;;23.43;35.12
22389;BME280;11362;48.102;11.620;2023-02-18T01:31:47;96012.34;;;23.42;35.22
22389;BME280;11362;48.102;11.620;2023-02-18T01:34:12;96016.69;;;23.42;35.21
22389;BME280;11362;48.102;11.620;2023-02-18T01:36:37;96009.16;;;23.43;35.07
22389;BME280;11362;48.102;11.620;2023-02-18T01:39:04;96022.25;;;23.42;34.97
22389;BME280;11362;48.102;11.620;2023-02-18T01:41:30;96021.44;;;23.42;35.09
22389;BME280;11362;48.102;11.620;2023-02-18T01:44:17;96017.47;;;23.43;35.20
22389;BME280;11362;48.102;11.620;2023-02-18T01:46:42;96022.25;;;23.42;35.10
22389;BME280;11362;48.102;11.620;2023-02-18T01:49:09;96020.66;;;23.42;35.13
22389;BME280;11362;48.102;11.620;2023-02-18T01:51:41;96020.66;;;23.42;35.22
22389;BME280;11362;48.102;11.620;2023-02-18T01:54:13;96027.78;;;23.42;35.07
22389;BME280;11362;48.102;11.620;2023-02-18T01:56:47;96017.91;;;23.42;35.23
22389;BME280;11362;48.102;11.620;2023-02-18T01:59:17;96012.34;;;23.42;35.03
22389;BME280;11362;48.102;11.620;2023-02-18T02:01:45;96007.97;;;23.40;35.11
22389;BME280;11362;48.102;11.620;2023-02-18T02:04:11;96015.13;;;23.42;35.11
22389;BME280;11362;48.102;11.620;2023-02-18T02:06:37;96017.91;;;23.42;35.10
22389;BME280;11362;48.102;11.620;2023-02-18T02:09:05;96020.66;;;23.42;35.17
22389;BME280;11362;48.102;11.620;2023-02-18T02:14:41;96020.66;;;23.42;35.10
22389;BME280;11362;48.102;11.620;2023-02-18T02:34:40;96000.84;;;23.39;34.98
22389;BME280;11362;48.102;11.620;2023-02-18T02:37:13;96001.66;;;23.40;35.09
22389;BME280;11362;48.102;11.620;2023-02-18T02:42:42;95990.94;;;23.38;34.97
22389;BME280;11362;48.102;11.620;2023-02-18T02:45:21;95992.94;;;23.38;35.10
22389;BME280;11362;48.102;11.620;2023-02-18T02:47:56;95993.34;;;23.37;35.06
22389;BME280;11362;48.102;11.620;2023-02-18T02:53:13;95986.59;;;23.38;35.16
22389;BME280;11362;48.102;11.620;2023-02-18T02:55:40;95983.81;;;23.38;35.01
22389;BME280;11362;48.102;11.620;2023-02-18T02:58:05;95992.16;;;23.38;34.97
22389;BME280;11362;48.102;11.620;2023-02-18T03:03:17;95983.81;;;23.38;35.09
22389;BME280;11362;48.102;11.620;2023-02-18T03:06:25;95966.38;;;23.37;35.11
22389;BME280;11362;48.102;11.620;2023-02-18T03:11:24;95968.38;;;23.37;35.04
22389;BME280;11362;48.102;11.620;2023-02-18T03:17:14;95975.50;;;23.38;34.96
22389;BME280;11362;48.102;11.620;2023-02-18T03:19:49;95968.38;;;23.37;34.99
22389;BME280;11362;48.102;11.620;2023-02-18T03:22:24;95969.16;;;23.37;35.02
22389;BME280;11362;48.102;11.620;2023-02-18T03:24:53;95964.41;;;23.38;34.88
22389;BME280;11362;48.102;11.620;2023-02-18T03:27:24;95964.41;;;23.38;34.95
22389;BME280;11362;48.102;11.620;2023-02-18T03:29:58;95969.97;;;23.38;34.97
22389;BME280;11362;48.102;11.620;2023-02-18T03:32:26;95974.31;;;23.38;34.86
22389;BME280;11362;48.102;11.620;2023-02-18T03:34:56;95968.78;;;23.38;35.08
22389;BME280;11362;48.102;11.620;2023-02-18T03:37:24;95968.00;;;23.38;35.00
22389;BME280;11362;48.102;11.620;2023-02-18T03:39:54;95979.88;;;23.38;34.95
22389;BME280;11362;48.102;11.620;2023-02-18T03:42:25;95969.16;;;23.37;35.11
22389;BME280;11362;48.102;11.620;2023-02-18T03:44:50;95960.06;;;23.37;35.27
22389;BME280;11362;48.102;11.620;2023-02-18T03:47:16;95961.66;;;23.38;35.15
22389;BME280;11362;48.102;11.620;2023-02-18T03:49:41;95965.22;;;23.38;34.99
22389;BME280;11362;48.102;11.620;2023-02-18T03:52:06;95959.69;;;23.38;34.99
22389;BME280;11362;48.102;11.620;2023-02-18T03:54:31;95962.44;;;23.38;35.10
22389;BME280;11362;48.102;11.620;2023-02-18T03:56:57;95970.78;;;23.38;34.99
22389;BME280;11362;48.102;11.620;2023-02-18T03:59:22;95956.91;;;23.38;34.95
22389;BME280;11362;48.102;11.620;2023-02-18T04:01:47;95956.09;;;23.38;35.00
22389;BME280;11362;48.102;11.620;2023-02-18T04:04:13;95959.69;;;23.38;34.85
22389;BME280;11362;48.102;11.620;2023-02-18T04:06:38;95966.00;;;23.38;34.85
22389;BME280;11362;48.102;11.620;2023-02-18T04:09:03;95959.69;;;23.38;35.14
22389;BME280;11362;48.102;11.620;2023-02-18T04:11:29;95958.88;;;23.38;35.04
22389;BME280;11362;48.102;11.620;2023-02-18T04:13:54;95962.84;;;23.37;34.94
22389;BME280;11362;48.102;11.620;2023-02-18T04:16:19;95960.06;;;23.37;34.99
22389;BME280;11362;48.102;11.620;2023-02-18T04:18:44;95953.72;;;23.36;35.00
22389;BME280;11362;48.102;11.620;2023-02-18T04:21:10;95969.16;;;23.37;34.84
22389;BME280;11362;48.102;11.620;2023-02-18T04:23:35;95957.28;;;23.37;34.97
22389;BME280;11362;48.102;11.620;2023-02-18T04:26:00;95951.75;;;23.37;34.97
22389;BME280;11362;48.102;11.620;2023-02-18T04:28:26;95965.22;;;23.38;34.98
22389;BME280;11362;48.102;11.620;2023-02-18T04:30:51;95950.56;;;23.38;35.01
22389;BME280;11362;48.102;11.620;2023-02-18T04:33:16;95956.09;;;23.38;34.92
22389;BME280;11362;48.102;11.620;2023-02-18T04:35:41;95947.78;;;23.38;34.93
22389;BME280;11362;48.102;11.620;2023-02-18T04:38:08;95950.56;;;23.38;34.98
22389;BME280;11362;48.102;11.620;2023-02-18T04:40:34;95957.69;;;23.38;35.07
22389;BME280;11362;48.102;11.620;2023-02-18T04:43:00;95969.97;;;23.38;34.99
22389;BME280;11362;48.102;11.620;2023-02-18T04:45:26;95963.22;;;23.38;34.84
22389;BME280;11362;48.102;11.620;2023-02-18T04:47:52;95965.22;;;23.38;34.95
22389;BME280;11362;48.102;11.620;2023-02-18T04:50:18;95970.78;;;23.38;34.97
22389;BME280;11362;48.102;11.620;2023-02-18T04:52:44;95964.41;;;23.38;34.86
22389;BME280;11362;48.102;11.620;2023-02-18T04:55:09;95963.63;;;23.37;34.85
22389;BME280;11362;48.102;11.620;2023-02-18T04:57:34;95983.81;;;23.38;34.74
22389;BME280;11362;48.102;11.620;2023-02-18T05:00:00;95979.47;;;23.37;34.99
22389;BME280;11362;48.102;11.620;2023-02-18T05:02:25;95972.34;;;23.39;34.84
22389;BME280;11362;48.102;11.620;2023-02-18T05:04:50;95975.13;;;23.39;34.94
22389;BME280;11362;48.102;11.620;2023-02-18T05:07:16;95966.00;;;23.38;34.95
22389;BME280;11362;48.102;11.620;2023-02-18T05:09:41;95971.53;;;23.38;34.94
22389;BME280;11362;48.102;11.620;2023-02-18T05:12:07;95973.13;;;23.39;34.94
22389;BME280;11362;48.102;11.620;2023-02-18T05:14:32;95965.22;;;23.38;34.98
22389;BME280;11362;48.102;11.620;2023-02-18T05:16:58;95956.09;;;23.38;34.81
22389;BME280;11362;48.102;11.620;2023-02-18T05:19:23;95955.72;;;23.39;34.88
22389;BME280;11362;48.102;11.620;2023-02-18T05:21:48;95952.13;;;23.38;34.90
22389;BME280;11362;48.102;11.620;2023-02-18T05:24:14;95950.56;;;23.38;34.58
22389;BME280;11362;48.102;11.620;2023-02-18T05:26:39;95961.66;;;23.38;34.88
22389;BME280;11362;48.102;11.620;2023-02-18T05:29:04;95958.88;;;23.38;34.90
22389;BME280;11362;48.102;11.620;2023-02-18T05:31:30;95948.59;;;23.38;34.90
22389;BME280;11362;48.102;11.620;2023-02-18T05:33:55;95943.03;;;23.38;34.87
22389;BME280;11362;48.102;11.620;2023-02-18T05:36:20;95939.84;;;23.39;34.84
22389;BME280;11362;48.102;11.620;2023-02-18T05:38:46;95942.63;;;23.39;34.82
22389;BME280;11362;48.102;11.620;2023-02-18T05:41:11;95949.38;;;23.38;34.96
22389;BME280;11362;48.102;11.620;2023-02-18T05:43:36;95950.94;;;23.39;34.98
22389;BME280;11362;48.102;11.620;2023-02-18T05:46:01;95953.72;;;23.39;34.91
22389;BME280;11362;48.102;11.620;2023-02-18T05:48:27;95941.44;;;23.40;34.89
22389;BME280;11362;48.102;11.620;2023-02-18T05:50:53;95954.53;;;23.40;34.83
22389;BME280;11362;48.102;11.620;2023-02-18T05:53:18;95950.94;;;23.39;34.78
22389;BME280;11362;48.102;11.620;2023-02-18T05:55:43;95943.44;;;23.40;34.96
22389;BME280;11362;48.102;11.620;2023-02-18T05:58:09;95939.84;;;23.39;34.72
22389;BME280;11362;48.102;11.620;2023-02-18T06:00:34;95939.84;;;23.39;34.92
22389;BME280;11362;48.102;11.620;2023-02-18T06:02:59;95942.25;;;23.38;34.87
22389;BME280;11362;48.102;11.620;2023-02-18T06:05:25;95943.03;;;23.38;34.90
22389;BME280;11362;48.102;11.620;2023-02-18T06:07:50;95942.25;;;23.38;34.88
22389;BME280;11362;48.102;11.620;2023-02-18T06:10:15;95953.34;;;23.38;34.95
22389;BME280;11362;48.102;11.620;2023-02-18T06:12:41;95951.38;;;23.38;34.80
22389;BME280;11362;48.102;11.620;2023-02-18T06:15:06;95942.63;;;23.36;34.81
22389;BME280;11362;48.102;11.620;2023-02-18T06:17:32;95946.97;;;23.37;34.91
22389;BME280;11362;48.102;11.620;2023-02-18T06:19:57;95951.75;;;23.37;34.92
22389;BME280;11362;48.102;11.620;2023-02-18T06:22:22;95956.09;;;23.38;34.87
22389;BME280;11362;48.102;11.620;2023-02-18T06:24:48;95960.06;;;23.37;34.85
22389;BME280;11362;48.102;11.620;2023-02-18T06:27:13;95961.66;;;23.38;34.82
22389;BME280;11362;48.102;11.620;2023-02-18T06:29:38;95964.41;;;23.38;34.82
22389;BME280;11362;48.102;11.620;2023-02-18T06:32:04;95964.41;;;23.38;34.81
22389;BME280;11362;48.102;11.620;2023-02-18T06:34:29;95964.41;;;23.38;34.98
22389;BME280;11362;48.102;11.620;2023-02-18T06:36:55;95956.50;;;23.39;35.72
22389;BME280;11362;48.102;11.620;2023-02-18T06:39:20;95966.38;;;23.44;35.79
22389;BME280;11362;48.102;11.620;2023-02-18T06:41:45;95968.75;;;23.45;36.03
22389;BME280;11362;48.102;11.620;2023-02-18T06:44:11;95946.19;;;23.47;36.23
22389;BME280;11362;48.102;11.620;2023-02-18T06:46:36;95966.38;;;23.47;36.29
22389;BME280;11362;48.102;11.620;2023-02-18T06:49:02;95963.59;;;23.47;36.20
22389;BME280;11362;48.102;11.620;2023-02-18T06:51:28;95968.75;;;23.49;36.31
22389;BME280;11362;48.102;11.620;2023-02-18T06:53:53;95961.25;;;23.49;36.33
22389;BME280;11362;48.102;11.620;2023-02-18T06:56:18;95964.78;;;23.50;36.43
22389;BME280;11362;48.102;11.620;2023-02-18T06:58:43;95957.25;;;23.50;36.45
22389;BME280;11362;48.102;11.620;2023-02-18T07:01:09;95958.84;;;23.51;36.22
22389;BME280;11362;48.102;11.620;2023-02-18T07:03:34;95962.81;;;23.50;36.32
22389;BME280;11362;48.102;11.620;2023-02-18T07:05:59;95950.16;;;23.49;36.26
22389;BME280;11362;48.102;11.620;2023-02-18T07:08:25;95953.31;;;23.48;36.19
22389;BME280;11362;48.102;11.620;2023-02-18T07:10:50;95945.78;;;23.48;36.05
22389;BME280;11362;48.102;11.620;2023-02-18T07:13:15;95948.16;;;23.46;35.98
22389;BME280;11362;48.102;11.620;2023-02-18T07:15:41;95939.84;;;23.46;35.91
22389;BME280;11362;48.102;11.620;2023-02-18T07:18:06;95945.38;;;23.46;35.84
22389;BME280;11362;48.102;11.620;2023-02-18T07:20:31;95948.16;;;23.46;35.77
22389;BME280;11362;48.102;11.620;2023-02-18T07:22:57;95936.69;;;23.44;35.75
22389;BME280;11362;48.102;11.620;2023-02-18T07:25:23;95942.22;;;23.44;35.73
22389;BME280;11362;48.102;11.620;2023-02-18T07:27:49;95934.28;;;23.46;35.65
22389;BME280;11362;48.102;11.620;2023-02-18T07:30:14;95938.25;;;23.45;35.70
22389;BME280;11362;48.102;11.620;2023-02-18T07:32:40;95942.22;;;23.44;35.59
22389;BME280;11362;48.102;11.620;2023-02-18T07:35:06;95953.31;;;23.44;35.60
22389;BME280;11362;48.102;11.620;2023-02-18T07:37:31;95954.91;;;23.45;35.53
22389;BME280;11362;48.102;11.620;2023-02-18T07:39:57;95946.56;;;23.45;35.54
22389;BME280;11362;48.102;11.620;2023-02-18T07:42:23;95948.56;;;23.45;35.26
22389;BME280;11362;48.102;11.620;2023-02-18T07:44:48;95952.13;;;23.45;35.31
22389;BME280;11362;48.102;11.620;2023-02-18T07:47:15;95948.56;;;23.45;35.51
22389;BME280;11362;48.102;11.620;2023-02-18T07:49:41;95938.25;;;23.45;35.56
22389;BME280;11362;48.102;11.620;2023-02-18T07:52:06;95950.94;;;23.46;35.63
22389;BME280;11362;48.102;11.620;2023-02-18T07:54:31;95939.06;;;23.49;36.08
22389;BME280;11362;48.102;11.620;2023-02-18T07:56:57;95945.38;;;23.50;36.07
22389;BME280;11362;48.102;11.620;2023-02-18T07:59:22;95957.25;;;23.50;36.26
22389;BME280;11362;48.102;11.620;2023-02-18T08:01:47;95946.94;;;23.51;36.22
22389;BME280;11362;48.102;11.620;2023-02-18T08:04:13;95944.97;;;23.51;36.15
22389;BME280;11362;48.102;11.620;2023-02-18T08:06:41;95946.94;;;23.51;36.23
22389;BME280;11362;48.102;11.620;2023-02-18T08:09:06;95925.56;;;23.51;36.30
22389;BME280;11362;48.102;11.620;2023-02-18T08:11:32;95938.25;;;23.52;36.36
22389;BME280;11362;48.102;11.620;2023-02-18T08:13:57;95924.75;;;23.54;36.43
22389;BME280;11362;48.102;11.620;2023-02-18T08:16:23;95935.84;;;23.54;36.49
22389;BME280;11362;48.102;11.620;2023-02-18T08:18:50;95921.59;;;23.56;36.52
22389;BME280;11362;48.102;11.620;2023-02-18T08:21:17;95918.00;;;23.55;36.37
22389;BME280;11362;48.102;11.620;2023-02-18T08:23:42;95916.84;;;23.56;36.49
22389;BME280;11362;48.102;11.620;2023-02-18T08:26:08;95914.44;;;23.62;36.41
22389;BME280;11362;48.102;11.620;2023-02-18T08:28:33;95925.88;;;23.74;36.31
22389;BME280;11362;48.102;11.620;2023-02-18T08:30:59;95910.38;;;23.94;35.81
22389;BME280;11362;48.102;11.620;2023-02-18T08:33:25;95911.88;;;24.06;35.80
22389;BME280;11362;48.102;11.620;2023-02-18T08:35:51;95900.78;;;24.09;35.87
22389;BME280;11362;48.102;11.620;2023-02-18T08:38:18;95902.75;;;24.05;36.08
22389;BME280;11362;48.102;11.620;2023-02-18T08:40:43;95887.31;;;24.04;36.12
22389;BME280;11362;48.102;11.620;2023-02-18T08:43:09;95892.91;;;23.97;36.12
22389;BME280;11362;48.102;11.620;2023-02-18T08:45:36;95894.50;;;23.91;36.23
22389;BME280;11362;48.102;11.620;2023-02-18T08:48:02;95885.81;;;23.89;36.21
22389;BME280;11362;48.102;11.620;2023-02-18T08:50:27;95865.59;;;23.85;36.17
22389;BME280;11362;48.102;11.620;2023-02-18T08:52:53;95852.94;;;23.84;36.13
22389;BME280;11362;48.102;11.620;2023-02-18T08:55:18;95863.63;;;23.82;36.25
22389;BME280;11362;48.102;11.620;2023-02-18T08:57:43;95871.53;;;23.84;36.15
22389;BME280;11362;48.102;11.620;2023-02-18T09:00:09;95863.22;;;23.84;36.08
22389;BME280;11362;48.102;11.620;2023-02-18T09:02:35;95864.03;;;23.84;36.13
22389;BME280;11362;48.102;11.620;2023-02-18T09:05:00;95833.50;;;23.84;36.08
22389;BME280;11362;48.102;11.620;2023-02-18T09:07:25;95826.38;;;23.80;36.21
22389;BME280;11362;48.102;11.620;2023-02-18T09:09:51;95921.50;;;23.77;36.34
22389;BME280;11362;48.102;11.620;2023-02-18T09:12:16;95898.13;;;23.74;35.98
22389;BME280;11362;48.102;11.620;2023-02-18T09:14:41;95907.69;;;23.63;35.34
22389;BME280;11362;48.102;11.620;2023-02-18T09:17:06;95901.75;;;23.68;35.40
22389;BME280;11362;48.102;11.620;2023-02-18T09:19:32;95905.69;;;23.70;35.56
22389;BME280;11362;48.102;11.620;2023-02-18T09:21:57;95895.38;;;23.74;35.63
22389;BME280;11362;48.102;11.620;2023-02-18T09:24:22;95902.09;;;23.73;35.80
22389;BME280;11362;48.102;11.620;2023-02-18T09:26:48;95900.53;;;23.72;35.69
22389;BME280;11362;48.102;11.620;2023-02-18T09:29:13;95894.59;;;23.70;35.86
22389;BME280;11362;48.102;11.620;2023-02-18T09:31:38;95896.56;;;23.70;35.95
22389;BME280;11362;48.102;11.620;2023-02-18T09:34:04;95897.75;;;23.72;36.08
22389;BME280;11362;48.102;11.620;2023-02-18T09:36:30;95903.69;;;23.74;36.14
22389;BME280;11362;48.102;11.620;2023-02-18T09:38:56;95895.75;;;23.76;36.14
22389;BME280;11362;48.102;11.620;2023-02-18T09:41:37;95877.94;;;23.77;36.05
22389;BME280;11362;48.102;11.620;2023-02-18T09:44:08;95871.19;;;23.78;36.06
22389;BME280;11362;48.102;11.620;2023-02-18T09:46:39;95867.97;;;23.80;36.43
22389;BME280;11362;48.102;11.620;2023-02-18T09:49:16;95863.22;;;23.87;36.66
22389;BME280;11362;48.102;11.620;2023-02-18T09:51:42;95854.91;;;23.87;36.74
22389;BME280;11362;48.102;11.620;2023-02-18T09:54:10;95858.84;;;23.93;36.57
22389;BME280;11362;48.102;11.620;2023-02-18T09:56:36;95827.50;;;23.96;36.59
22389;BME280;11362;48.102;11.620;2023-02-18T09:59:05;95821.56;;;23.98;36.72
22389;BME280;11362;48.102;11.620;2023-02-18T10:01:37;95831.81;;;24.01;36.91
22389;BME280;11362;48.102;11.620;2023-02-18T10:04:11;95837.78;;;24.03;37.05
22389;BME280;11362;48.102;11.620;2023-02-18T10:06:38;95827.06;;;24.01;36.78
22389;BME280;11362;48.102;11.620;2023-02-18T10:09:12;95821.53;;;24.01;37.15
22389;BME280;11362;48.102;11.620;2023-02-18T10:11:41;95832.63;;;24.01;37.09
22389;BME280;11362;48.102;11.620;2023-02-18T10:14:12;95825.47;;;24.04;37.14
22389;BME280;11362;48.102;11.620;2023-02-18T10:16:39;95828.66;;;24.02;37.14
22389;BME280;11362;48.102;11.620;2023-02-18T10:21:55;95780.66;;;24.02;37.25
22389;BME280;11362;48.102;11.620;2023-02-18T10:24:30;95780.28;;;24.03;37.19
22389;BME280;11362;48.102;11.620;2023-02-18T10:26:57;95779.50;;;24.03;37.30
22389;BME280;11362;48.102;11.620;2023-02-18T10:29:24;95766.03;;;24.01;36.98
22389;BME280;11362;48.102;11.620;2023-02-18T10:31:58;95770.38;;;24.02;37.06
22389;BME280;11362;48.102;11.620;2023-02-18T10:34:44;95761.25;;;24.02;36.80
22389;BME280;11362;48.102;11.620;2023-02-18T10:45:30;95781.88;;;24.01;37.06
22389;BME280;11362;48.102;11.620;2023-02-18T10:50:51;95763.25;;;24.01;37.13
22389;BME280;11362;48.102;11.620;2023-02-18T10:53:36;95753.31;;;24.04;36.96
22389;BME280;11362;48.102;11.620;2023-02-18T10:56:04;95716.81;;;24.05;37.08
22389;BME280;11362;48.102;11.620;2023-02-18T10:58:33;95762.81;;;24.06;37.06
22389;BME280;11362;48.102;11.620;2023-02-18T11:01:00;95723.56;;;24.04;37.10
22389;BME280;11362;48.102;11.620;2023-02-18T11:03:46;95736.63;;;24.07;36.89
22389;BME280;11362;48.102;11.620;2023-02-18T11:06:20;95732.69;;;24.05;36.73
22389;BME280;11362;48.102;11.620;2023-02-18T11:08:46;95729.13;;;24.04;36.70
22389;BME280;11362;48.102;11.620;2023-02-18T11:11:33;95711.66;;;24.07;36.57
22389;BME280;11362;48.102;11.620;2023-02-18T11:14:02;95705.31;;;24.07;36.53
22389;BME280;11362;48.102;11.620;2023-02-18T11:16:40;95702.94;;;24.05;36.52
22389;BME280;11362;48.102;11.620;2023-02-18T11:19:36;95695.41;;;24.06;36.46
22389;BME280;11362;48.102;11.620;2023-02-18T11:22:23;95696.22;;;24.06;36.32
22389;BME280;11362;48.102;11.620;2023-02-18T11:24:57;95701.75;;;24.06;36.48
22389;BME280;11362;48.102;11.620;2023-02-18T11:27:27;95696.22;;;24.06;36.32
22389;BME280;11362;48.102;11.620;2023-02-18T11:30:01;95683.91;;;24.07;36.34
22389;BME280;11362;48.102;11.620;2023-02-18T11:32:28;95702.09;;;24.12;36.20
22389;BME280;11362;48.102;11.620;2023-02-18T11:34:54;95724.72;;;24.10;36.21
22389;BME280;11362;48.102;11.620;2023-02-18T11:37:20;95694.19;;;24.10;36.22
22389;BME280;11362;48.102;11.620;2023-02-18T11:39:49;95665.66;;;24.10;36.27
22389;BME280;11362;48.102;11.620;2023-02-18T11:42:17;95659.66;;;24.11;36.25
22389;BME280;11362;48.102;11.620;2023-02-18T11:49:41;95667.63;;;24.09;35.96
22389;BME280;11362;48.102;11.620;2023-02-18T11:52:19;95674.78;;;24.07;36.07
22389;BME280;11362;48.102;11.620;2023-02-18T11:55:07;95669.25;;;24.03;36.18
22389;BME280;11362;48.102;11.620;2023-02-18T11:57:41;95668.06;;;24.04;35.96
22389;BME280;11362;48.102;11.620;2023-02-18T12:00:46;95659.75;;;24.04;35.93
22389;BME280;11362;48.102;11.620;2023-02-18T12:03:37;95662.94;;;24.03;36.00
22389;BME280;11362;48.102;11.620;2023-02-18T12:06:22;95652.63;;;24.03;35.83
22389;BME280;11362;48.102;11.620;2023-02-18T12:12:17;95633.22;;;24.00;35.90
22389;BME280;11362;48.102;11.620;2023-02-18T12:14:44;95639.16;;;23.98;35.97
22389;BME280;11362;48.102;11.620;2023-02-18T12:20:18;95603.09;;;23.98;35.88
22389;BME280;11362;48.102;11.620;2023-02-18T12:23:02;95597.16;;;24.00;35.81
22389;BME280;11362;48.102;11.620;2023-02-18T12:26:04;95587.63;;;24.01;35.87
22389;BME280;11362;48.102;11.620;2023-02-18T12:28:52;95623.28;;;24.02;35.82
22389;BME280;11362;48.102;11.620;2023-02-18T12:31:45;95620.16;;;24.00;35.82
22389;BME280;11362;48.102;11.620;2023-02-18T12:34:32;95608.63;;;24.02;35.86
22389;BME280;11362;48.102;11.620;2023-02-18T12:37:28;95604.28;;;24.01;35.90
22389;BME280;11362;48.102;11.620;2023-02-18T12:42:39;95599.16;;;23.99;35.81
22389;BME280;11362;48.102;11.620;2023-02-18T12:51:18;95609.81;;;24.01;35.89
22389;BME280;11362;48.102;11.620;2023-02-18T12:56:43;95595.91;;;24.04;36.13
22389;BME280;11362;48.102;11.620;2023-02-18T13:10:33;95627.56;;;24.10;36.41
22389;BME280;11362;48.102;11.620;2023-02-18T13:13:18;95604.56;;;24.13;36.47
22389;BME280;11362;48.102;11.620;2023-02-18T13:15:58;95605.66;;;24.19;36.35
22389;BME280;11362;48.102;11.620;2023-02-18T13:18:30;95592.53;;;24.23;36.24
22389;BME280;11362;48.102;11.620;2023-02-18T13:20:59;95593.72;;;24.26;36.46
22389;BME280;11362;48.102;11.620;2023-02-18T13:23:33;95608.28;;;24.33;37.19
22389;BME280;11362;48.102;11.620;2023-02-18T13:26:01;95601.47;;;24.38;37.23
22389;BME280;11362;48.102;11.620;2023-02-18T13:31:14;95610.63;;;24.38;37.45
22389;BME280;11362;48.102;11.620;2023-02-18T13:33:53;95600.25;;;24.42;37.55
22389;BME280;11362;48.102;11.620;2023-02-18T13:39:07;95611.81;;;24.37;38.20
22389;BME280;11362;48.102;11.620;2023-02-18T13:41:39;95577.66;;;24.40;38.26
22389;BME280;11362;48.102;11.620;2023-02-18T13:46:56;95612.53;;;24.41;38.42
22389;BME280;11362;48.102;11.620;2023-02-18T13:49:24;95590.34;;;24.41;38.63
22389;BME280;11362;48.102;11.620;2023-02-18T13:51:52;95599.13;;;24.36;38.63
22389;BME280;11362;48.102;11.620;2023-02-18T13:54:24;95623.72;;;24.34;38.60
22389;BME280;11362;48.102;11.620;2023-02-18T13:59:40;95594.47;;;24.26;37.93
22389;BME280;11362;48.102;11.620;2023-02-18T14:09:46;95589.41;;;24.21;37.92
22389;BME280;11362;48.102;11.620;2023-02-18T14:14:42;95601.72;;;24.20;37.99
22389;BME280;11362;48.102;11.620;2023-02-18T14:19:42;95577.91;;;24.19;38.07
22389;BME280;11362;48.102;11.620;2023-02-18T14:22:46;95581.47;;;24.20;38.22
22389;BME280;11362;48.102;11.620;2023-02-18T14:25:16;95571.56;;;24.19;38.25
22389;BME280;11362;48.102;11.620;2023-02-18T14:27:49;95564.47;;;24.18;38.28
22389;BME280;11362;48.102;11.620;2023-02-18T14:30:19;95542.25;;;24.18;38.41
22389;BME280;11362;48.102;11.620;2023-02-18T14:32:50;95555.72;;;24.16;38.33
22389;BME280;11362;48.102;11.620;2023-02-18T14:35:49;95556.94;;;24.15;38.46
22389;BME280;11362;48.102;11.620;2023-02-18T14:44:36;95569.66;;;24.12;38.42
22389;BME280;11362;48.102;11.620;2023-02-18T14:49:58;95626.41;;;24.08;38.17
22389;BME280;11362;48.102;11.620;2023-02-18T14:55:22;95593.13;;;24.04;37.58
22389;BME280;11362;48.102;11.620;2023-02-18T14:57:53;95581.31;;;24.00;37.43